sensor_id;sensor_type;location;lat;lon;timestamp;P1;durP1;ratioP1;P2;durP2;ratioP2
50585;SDS011;36542;51.700;8.846;2023-04-09T00:01:53;85.17;;;39.57;;
50585;SDS011;36542;51.700;8.846;2023-04-09T00:04:19;78.63;;;37.57;;
50585;SDS011;36542;51.700;8.846;2023-04-09T00:06:46;75.93;;;36.47;;
50585;SDS011;36542;51.700;8.846;2023-04-09T00:09:11;75.67;;;36.93;;
50585;SDS011;36542;51.700;8.846;2023-04-09T00:11:37;70.33;;;33.67;;
50585;SDS011;36542;51.700;8.846;2023-04-09T00:14:02;81.23;;;38.43;;
50585;SDS011;36542;51.700;8.846;2023-04-09T00:16:28;76.93;;;36.37;;
50585;SDS011;36542;51.700;8.846;2023-04-09T00:18:53;82.77;;;37.13;;
50585;SDS011;36542;51.700;8.846;2023-04-09T00:21:20;84.20;;;36.97;;
50585;SDS011;36542;51.700;8.846;2023-04-09T00:23:45;84.73;;;39.20;;
50585;SDS011;36542;51.700;8.846;2023-04-09T00:26:11;82.70;;;37.67;;
50585;SDS011;36542;51.700;8.846;2023-04-09T00:28:36;76.03;;;34.83;;
50585;SDS011;36542;51.700;8.846;2023-04-09T00:31:02;74.10;;;35.23;;
50585;SDS011;36542;51.700;8.846;2023-04-09T00:33:27;73.50;;;36.27;;
50585;SDS011;36542;51.700;8.846;2023-04-09T00:35:54;79.30;;;37.40;;
50585;SDS011;36542;51.700;8.846;2023-04-09T00:38:20;74.60;;;37.43;;
50585;SDS011;36542;51.700;8.846;2023-04-09T00:40:49;75.47;;;36.57;;
50585;SDS011;36542;51.700;8.846;2023-04-09T00:43:15;70.97;;;32.67;;
50585;SDS011;36542;51.700;8.846;2023-04-09T00:45:41;83.30;;;38.33;;
50585;SDS011;36542;51.700;8.846;2023-04-09T00:48:08;87.17;;;39.47;;
50585;SDS011;36542;51.700;8.846;2023-04-09T00:50:33;83.33;;;38.93;;
50585;SDS011;36542;51.700;8.846;2023-04-09T00:52:59;77.10;;;35.07;;
50585;SDS011;36542;51.700;8.846;2023-04-09T00:55:25;75.67;;;36.13;;
50585;SDS011;36542;51.700;8.846;2023-04-09T00:57:51;77.57;;;35.10;;
50585;SDS011;36542;51.700;8.846;2023-04-09T01:00:16;76.87;;;36.33;;
50585;SDS011;36542;51.700;8.846;2023-04-09T01:02:41;80.83;;;36.67;;
50585;SDS011;36542;51.700;8.846;2023-04-09T01:05:08;86.17;;;40.20;;
50585;SDS011;36542;51.700;8.846;2023-04-09T01:07:50;88.60;;;39.70;;
50585;SDS011;36542;51.700;8.846;2023-04-09T01:10:32;87.93;;;39.67;;
50585;SDS011;36542;51.700;8.846;2023-04-09T01:15:43;92.93;;;40.47;;
50585;SDS011;36542;51.700;8.846;2023-04-09T01:18:14;89.77;;;42.17;;
50585;SDS011;36542;51.700;8.846;2023-04-09T01:20:50;84.10;;;40.30;;
50585;SDS011;36542;51.700;8.846;2023-04-09T01:23:44;89.60;;;40.33;;
50585;SDS011;36542;51.700;8.846;2023-04-09T01:29:02;91.60;;;42.50;;
50585;SDS011;36542;51.700;8.846;2023-04-09T01:31:34;78.70;;;39.27;;
50585;SDS011;36542;51.700;8.846;2023-04-09T01:34:01;85.23;;;41.87;;
50585;SDS011;36542;51.700;8.846;2023-04-09T01:36:29;85.50;;;41.50;;
50585;SDS011;36542;51.700;8.846;2023-04-09T01:38:55;90.83;;;43.00;;
50585;SDS011;36542;51.700;8.846;2023-04-09T01:41:21;93.37;;;44.13;;
50585;SDS011;36542;51.700;8.846;2023-04-09T01:43:48;89.63;;;42.07;;
50585;SDS011;36542;51.700;8.846;2023-04-09T01:46:15;90.77;;;42.40;;
50585;SDS011;36542;51.700;8.846;2023-04-09T01:48:42;94.73;;;44.33;;
50585;SDS011;36542;51.700;8.846;2023-04-09T01:51:08;87.97;;;43.50;;
50585;SDS011;36542;51.700;8.846;2023-04-09T01:53:34;83.43;;;42.40;;
50585;SDS011;36542;51.700;8.846;2023-04-09T01:56:00;84.90;;;41.80;;
50585;SDS011;36542;51.700;8.846;2023-04-09T01:58:26;81.73;;;40.40;;
50585;SDS011;36542;51.700;8.846;2023-04-09T02:01:05;75.73;;;37.87;;
50585;SDS011;36542;51.700;8.846;2023-04-09T02:03:38;80.83;;;39.80;;
50585;SDS011;36542;51.700;8.846;2023-04-09T02:08:43;82.70;;;39.90;;
50585;SDS011;36542;51.700;8.846;2023-04-09T02:11:10;86.13;;;41.87;;
50585;SDS011;36542;51.700;8.846;2023-04-09T02:13:37;83.60;;;41.73;;
50585;SDS011;36542;51.700;8.846;2023-04-09T02:16:05;87.20;;;42.90;;
50585;SDS011;36542;51.700;8.846;2023-04-09T02:18:32;88.90;;;41.37;;
50585;SDS011;36542;51.700;8.846;2023-04-09T02:20:58;85.70;;;41.47;;
50585;SDS011;36542;51.700;8.846;2023-04-09T02:23:24;82.13;;;41.27;;
50585;SDS011;36542;51.700;8.846;2023-04-09T02:25:51;85.43;;;40.57;;
50585;SDS011;36542;51.700;8.846;2023-04-09T02:28:17;84.87;;;40.23;;
50585;SDS011;36542;51.700;8.846;2023-04-09T02:30:43;82.50;;;41.43;;
50585;SDS011;36542;51.700;8.846;2023-04-09T02:33:08;89.37;;;40.13;;
50585;SDS011;36542;51.700;8.846;2023-04-09T02:35:34;88.53;;;42.20;;
50585;SDS011;36542;51.700;8.846;2023-04-09T02:38:00;87.43;;;41.63;;
50585;SDS011;36542;51.700;8.846;2023-04-09T02:40:26;83.20;;;42.43;;
50585;SDS011;36542;51.700;8.846;2023-04-09T02:42:51;87.43;;;43.73;;
50585;SDS011;36542;51.700;8.846;2023-04-09T02:45:17;79.20;;;38.83;;
50585;SDS011;36542;51.700;8.846;2023-04-09T02:47:43;82.93;;;40.90;;
50585;SDS011;36542;51.700;8.846;2023-04-09T02:50:08;88.70;;;41.73;;
50585;SDS011;36542;51.700;8.846;2023-04-09T02:52:34;82.10;;;41.67;;
50585;SDS011;36542;51.700;8.846;2023-04-09T02:55:00;83.83;;;41.73;;
50585;SDS011;36542;51.700;8.846;2023-04-09T02:57:26;85.20;;;42.63;;
50585;SDS011;36542;51.700;8.846;2023-04-09T02:59:51;85.77;;;41.70;;
50585;SDS011;36542;51.700;8.846;2023-04-09T03:02:17;82.30;;;41.80;;
50585;SDS011;36542;51.700;8.846;2023-04-09T03:04:42;92.33;;;42.43;;
50585;SDS011;36542;51.700;8.846;2023-04-09T03:07:08;98.10;;;46.17;;
50585;SDS011;36542;51.700;8.846;2023-04-09T03:09:33;85.10;;;41.27;;
50585;SDS011;36542;51.700;8.846;2023-04-09T03:11:59;86.93;;;43.13;;
50585;SDS011;36542;51.700;8.846;2023-04-09T03:14:25;88.50;;;43.90;;
50585;SDS011;36542;51.700;8.846;2023-04-09T03:16:51;87.30;;;44.47;;
50585;SDS011;36542;51.700;8.846;2023-04-09T03:19:17;85.97;;;42.03;;
50585;SDS011;36542;51.700;8.846;2023-04-09T03:21:42;84.53;;;41.77;;
50585;SDS011;36542;51.700;8.846;2023-04-09T03:24:08;93.53;;;43.37;;
50585;SDS011;36542;51.700;8.846;2023-04-09T03:26:33;86.97;;;42.67;;
50585;SDS011;36542;51.700;8.846;2023-04-09T03:29:02;78.40;;;41.00;;
50585;SDS011;36542;51.700;8.846;2023-04-09T03:31:28;86.33;;;43.80;;
50585;SDS011;36542;51.700;8.846;2023-04-09T03:33:54;76.73;;;41.50;;
50585;SDS011;36542;51.700;8.846;2023-04-09T03:36:19;79.90;;;41.20;;
50585;SDS011;36542;51.700;8.846;2023-04-09T03:38:45;82.40;;;41.13;;
50585;SDS011;36542;51.700;8.846;2023-04-09T03:41:10;80.30;;;38.93;;
50585;SDS011;36542;51.700;8.846;2023-04-09T03:43:36;87.93;;;41.67;;
50585;SDS011;36542;51.700;8.846;2023-04-09T03:46:09;84.00;;;41.73;;
50585;SDS011;36542;51.700;8.846;2023-04-09T03:48:41;79.60;;;42.50;;
50585;SDS011;36542;51.700;8.846;2023-04-09T03:51:11;80.30;;;41.40;;
50585;SDS011;36542;51.700;8.846;2023-04-09T03:53:38;75.93;;;39.50;;
50585;SDS011;36542;51.700;8.846;2023-04-09T03:56:04;77.93;;;42.13;;
50585;SDS011;36542;51.700;8.846;2023-04-09T03:58:29;83.70;;;41.20;;
50585;SDS011;36542;51.700;8.846;2023-04-09T04:00:55;88.60;;;43.67;;
50585;SDS011;36542;51.700;8.846;2023-04-09T04:03:21;85.00;;;40.83;;
50585;SDS011;36542;51.700;8.846;2023-04-09T04:05:47;83.00;;;40.53;;
50585;SDS011;36542;51.700;8.846;2023-04-09T04:08:12;79.00;;;37.67;;
50585;SDS011;36542;51.700;8.846;2023-04-09T04:10:38;80.57;;;39.17;;
50585;SDS011;36542;51.700;8.846;2023-04-09T04:13:05;76.27;;;37.80;;
50585;SDS011;36542;51.700;8.846;2023-04-09T04:15:32;76.40;;;39.67;;
50585;SDS011;36542;51.700;8.846;2023-04-09T04:17:57;80.43;;;41.27;;
50585;SDS011;36542;51.700;8.846;2023-04-09T04:20:23;86.57;;;40.43;;
50585;SDS011;36542;51.700;8.846;2023-04-09T04:22:48;80.23;;;42.63;;
50585;SDS011;36542;51.700;8.846;2023-04-09T04:25:14;80.17;;;40.23;;
50585;SDS011;36542;51.700;8.846;2023-04-09T04:27:42;80.90;;;40.53;;
50585;SDS011;36542;51.700;8.846;2023-04-09T04:30:08;78.63;;;37.93;;
50585;SDS011;36542;51.700;8.846;2023-04-09T04:32:33;78.20;;;39.90;;
50585;SDS011;36542;51.700;8.846;2023-04-09T04:34:59;87.73;;;41.33;;
50585;SDS011;36542;51.700;8.846;2023-04-09T04:37:24;86.70;;;45.17;;
50585;SDS011;36542;51.700;8.846;2023-04-09T04:39:50;88.13;;;44.03;;
50585;SDS011;36542;51.700;8.846;2023-04-09T04:42:16;91.30;;;43.30;;
50585;SDS011;36542;51.700;8.846;2023-04-09T04:44:42;85.77;;;41.57;;
50585;SDS011;36542;51.700;8.846;2023-04-09T04:47:07;80.87;;;38.30;;
50585;SDS011;36542;51.700;8.846;2023-04-09T04:49:33;74.67;;;38.87;;
50585;SDS011;36542;51.700;8.846;2023-04-09T04:51:58;69.53;;;35.57;;
50585;SDS011;36542;51.700;8.846;2023-04-09T04:54:24;75.23;;;36.93;;
50585;SDS011;36542;51.700;8.846;2023-04-09T04:56:50;69.30;;;34.73;;
50585;SDS011;36542;51.700;8.846;2023-04-09T04:59:15;73.93;;;38.70;;
50585;SDS011;36542;51.700;8.846;2023-04-09T05:01:41;80.03;;;39.10;;
50585;SDS011;36542;51.700;8.846;2023-04-09T05:04:06;78.67;;;39.80;;
50585;SDS011;36542;51.700;8.846;2023-04-09T05:06:32;76.40;;;40.23;;
50585;SDS011;36542;51.700;8.846;2023-04-09T05:08:57;70.30;;;37.40;;
50585;SDS011;36542;51.700;8.846;2023-04-09T05:11:23;75.63;;;38.00;;
50585;SDS011;36542;51.700;8.846;2023-04-09T05:13:49;81.93;;;39.93;;
50585;SDS011;36542;51.700;8.846;2023-04-09T05:16:15;79.23;;;39.73;;
50585;SDS011;36542;51.700;8.846;2023-04-09T05:18:42;79.00;;;39.50;;
50585;SDS011;36542;51.700;8.846;2023-04-09T05:21:07;80.10;;;40.73;;
50585;SDS011;36542;51.700;8.846;2023-04-09T05:23:33;75.13;;;39.57;;
50585;SDS011;36542;51.700;8.846;2023-04-09T05:25:58;72.13;;;38.40;;
50585;SDS011;36542;51.700;8.846;2023-04-09T05:28:24;73.53;;;39.23;;
50585;SDS011;36542;51.700;8.846;2023-04-09T05:30:49;66.43;;;37.50;;
50585;SDS011;36542;51.700;8.846;2023-04-09T05:33:15;71.90;;;38.60;;
50585;SDS011;36542;51.700;8.846;2023-04-09T05:35:40;71.00;;;36.57;;
50585;SDS011;36542;51.700;8.846;2023-04-09T05:38:06;65.33;;;35.10;;
50585;SDS011;36542;51.700;8.846;2023-04-09T05:40:32;68.50;;;35.23;;
50585;SDS011;36542;51.700;8.846;2023-04-09T05:42:57;65.43;;;35.17;;
50585;SDS011;36542;51.700;8.846;2023-04-09T05:45:23;60.97;;;33.17;;
50585;SDS011;36542;51.700;8.846;2023-04-09T05:47:48;59.43;;;32.83;;
50585;SDS011;36542;51.700;8.846;2023-04-09T05:50:14;55.13;;;32.27;;
50585;SDS011;36542;51.700;8.846;2023-04-09T05:52:39;55.87;;;30.67;;
50585;SDS011;36542;51.700;8.846;2023-04-09T05:55:05;50.53;;;30.63;;
50585;SDS011;36542;51.700;8.846;2023-04-09T05:57:31;48.33;;;28.97;;
50585;SDS011;36542;51.700;8.846;2023-04-09T05:59:57;46.87;;;29.00;;
50585;SDS011;36542;51.700;8.846;2023-04-09T06:02:23;44.57;;;28.90;;
50585;SDS011;36542;51.700;8.846;2023-04-09T06:04:49;44.83;;;28.30;;
50585;SDS011;36542;51.700;8.846;2023-04-09T06:07:14;41.23;;;26.57;;
50585;SDS011;36542;51.700;8.846;2023-04-09T06:09:40;44.23;;;26.33;;
50585;SDS011;36542;51.700;8.846;2023-04-09T06:12:08;40.87;;;27.23;;
50585;SDS011;36542;51.700;8.846;2023-04-09T06:14:33;41.57;;;27.30;;
50585;SDS011;36542;51.700;8.846;2023-04-09T06:16:59;42.97;;;26.97;;
50585;SDS011;36542;51.700;8.846;2023-04-09T06:19:25;37.97;;;25.70;;
50585;SDS011;36542;51.700;8.846;2023-04-09T06:21:50;38.90;;;26.27;;
50585;SDS011;36542;51.700;8.846;2023-04-09T06:24:16;42.70;;;27.13;;
50585;SDS011;36542;51.700;8.846;2023-04-09T06:26:41;41.67;;;26.30;;
50585;SDS011;36542;51.700;8.846;2023-04-09T06:29:07;42.07;;;26.53;;
50585;SDS011;36542;51.700;8.846;2023-04-09T06:31:32;42.90;;;27.87;;
50585;SDS011;36542;51.700;8.846;2023-04-09T06:33:58;62.10;;;40.40;;
50585;SDS011;36542;51.700;8.846;2023-04-09T06:36:24;70.63;;;42.83;;
50585;SDS011;36542;51.700;8.846;2023-04-09T06:38:51;126.87;;;72.00;;
50585;SDS011;36542;51.700;8.846;2023-04-09T06:41:19;47.70;;;32.00;;
50585;SDS011;36542;51.700;8.846;2023-04-09T06:43:45;43.73;;;29.53;;
50585;SDS011;36542;51.700;8.846;2023-04-09T06:46:10;40.50;;;27.50;;
50585;SDS011;36542;51.700;8.846;2023-04-09T06:48:37;40.13;;;27.30;;
50585;SDS011;36542;51.700;8.846;2023-04-09T06:51:03;40.93;;;27.30;;
50585;SDS011;36542;51.700;8.846;2023-04-09T06:53:30;42.80;;;27.73;;
50585;SDS011;36542;51.700;8.846;2023-04-09T06:55:55;40.60;;;27.53;;
50585;SDS011;36542;51.700;8.846;2023-04-09T06:58:21;41.63;;;26.37;;
50585;SDS011;36542;51.700;8.846;2023-04-09T07:00:46;38.60;;;27.03;;
50585;SDS011;36542;51.700;8.846;2023-04-09T07:03:13;39.93;;;26.30;;
50585;SDS011;36542;51.700;8.846;2023-04-09T07:05:38;39.37;;;25.53;;
50585;SDS011;36542;51.700;8.846;2023-04-09T07:08:04;40.40;;;26.70;;
50585;SDS011;36542;51.700;8.846;2023-04-09T07:10:29;42.60;;;27.63;;
50585;SDS011;36542;51.700;8.846;2023-04-09T07:12:55;45.77;;;30.80;;
50585;SDS011;36542;51.700;8.846;2023-04-09T07:15:21;40.60;;;27.40;;
50585;SDS011;36542;51.700;8.846;2023-04-09T07:17:46;35.33;;;25.33;;
50585;SDS011;36542;51.700;8.846;2023-04-09T07:20:11;38.77;;;25.67;;
50585;SDS011;36542;51.700;8.846;2023-04-09T07:22:37;40.97;;;26.47;;
50585;SDS011;36542;51.700;8.846;2023-04-09T07:25:03;35.70;;;25.10;;
50585;SDS011;36542;51.700;8.846;2023-04-09T07:27:29;36.70;;;25.83;;
50585;SDS011;36542;51.700;8.846;2023-04-09T07:29:55;35.80;;;25.03;;
50585;SDS011;36542;51.700;8.846;2023-04-09T07:32:22;67.37;;;39.20;;
50585;SDS011;36542;51.700;8.846;2023-04-09T07:34:49;33.90;;;25.07;;
50585;SDS011;36542;51.700;8.846;2023-04-09T07:37:16;35.83;;;25.17;;
50585;SDS011;36542;51.700;8.846;2023-04-09T07:39:42;36.13;;;24.83;;
50585;SDS011;36542;51.700;8.846;2023-04-09T07:42:07;35.70;;;25.67;;
50585;SDS011;36542;51.700;8.846;2023-04-09T07:44:33;36.30;;;25.10;;
50585;SDS011;36542;51.700;8.846;2023-04-09T07:47:00;37.73;;;25.80;;
50585;SDS011;36542;51.700;8.846;2023-04-09T07:49:26;39.47;;;27.83;;
50585;SDS011;36542;51.700;8.846;2023-04-09T07:51:51;35.67;;;25.97;;
50585;SDS011;36542;51.700;8.846;2023-04-09T07:54:17;30.23;;;23.40;;
50585;SDS011;36542;51.700;8.846;2023-04-09T07:56:45;33.27;;;24.93;;
50585;SDS011;36542;51.700;8.846;2023-04-09T07:59:11;32.83;;;24.40;;
50585;SDS011;36542;51.700;8.846;2023-04-09T08:01:36;32.83;;;24.83;;
50585;SDS011;36542;51.700;8.846;2023-04-09T08:04:02;32.70;;;23.67;;
50585;SDS011;36542;51.700;8.846;2023-04-09T08:06:27;26.57;;;20.67;;
50585;SDS011;36542;51.700;8.846;2023-04-09T08:08:53;28.47;;;20.17;;
50585;SDS011;36542;51.700;8.846;2023-04-09T08:11:18;25.10;;;18.77;;
50585;SDS011;36542;51.700;8.846;2023-04-09T08:13:49;26.17;;;19.07;;
50585;SDS011;36542;51.700;8.846;2023-04-09T08:16:15;27.00;;;20.67;;
50585;SDS011;36542;51.700;8.846;2023-04-09T08:18:41;24.20;;;19.17;;
50585;SDS011;36542;51.700;8.846;2023-04-09T08:21:06;26.23;;;19.40;;
50585;SDS011;36542;51.700;8.846;2023-04-09T08:23:32;25.90;;;18.20;;
50585;SDS011;36542;51.700;8.846;2023-04-09T08:25:57;25.57;;;18.40;;
50585;SDS011;36542;51.700;8.846;2023-04-09T08:28:23;25.73;;;18.70;;
50585;SDS011;36542;51.700;8.846;2023-04-09T08:30:48;23.80;;;18.13;;
50585;SDS011;36542;51.700;8.846;2023-04-09T08:33:16;22.53;;;17.33;;
50585;SDS011;36542;51.700;8.846;2023-04-09T08:35:41;21.60;;;16.87;;
50585;SDS011;36542;51.700;8.846;2023-04-09T08:38:07;21.03;;;16.00;;
50585;SDS011;36542;51.700;8.846;2023-04-09T08:40:33;19.90;;;16.13;;
50585;SDS011;36542;51.700;8.846;2023-04-09T08:43:03;21.20;;;16.58;;
50585;SDS011;36542;51.700;8.846;2023-04-09T08:45:33;21.87;;;16.47;;
50585;SDS011;36542;51.700;8.846;2023-04-09T08:47:59;21.50;;;16.87;;
50585;SDS011;36542;51.700;8.846;2023-04-09T08:50:29;24.43;;;17.80;;
50585;SDS011;36542;51.700;8.846;2023-04-09T08:53:03;20.67;;;15.50;;
50585;SDS011;36542;51.700;8.846;2023-04-09T08:55:30;25.87;;;18.90;;
50585;SDS011;36542;51.700;8.846;2023-04-09T08:57:58;21.23;;;15.77;;
50585;SDS011;36542;51.700;8.846;2023-04-09T09:00:24;20.10;;;15.60;;
50585;SDS011;36542;51.700;8.846;2023-04-09T09:03:03;23.57;;;18.23;;
50585;SDS011;36542;51.700;8.846;2023-04-09T09:05:36;18.47;;;14.83;;
50585;SDS011;36542;51.700;8.846;2023-04-09T09:08:01;20.00;;;15.70;;
50585;SDS011;36542;51.700;8.846;2023-04-09T09:10:40;21.77;;;15.40;;
50585;SDS011;36542;51.700;8.846;2023-04-09T09:13:17;21.97;;;16.20;;
50585;SDS011;36542;51.700;8.846;2023-04-09T09:15:51;17.38;;;13.32;;
50585;SDS011;36542;51.700;8.846;2023-04-09T09:18:36;25.38;;;19.52;;
50585;SDS011;36542;51.700;8.846;2023-04-09T09:21:13;31.08;;;22.65;;
50585;SDS011;36542;51.700;8.846;2023-04-09T09:23:40;25.73;;;19.87;;
50585;SDS011;36542;51.700;8.846;2023-04-09T09:26:13;51.30;;;37.23;;
50585;SDS011;36542;51.700;8.846;2023-04-09T09:28:44;25.43;;;19.70;;
50585;SDS011;36542;51.700;8.846;2023-04-09T09:31:11;23.13;;;16.80;;
50585;SDS011;36542;51.700;8.846;2023-04-09T09:33:37;16.60;;;12.63;;
50585;SDS011;36542;51.700;8.846;2023-04-09T09:36:03;18.38;;;14.10;;
50585;SDS011;36542;51.700;8.846;2023-04-09T09:38:29;23.48;;;17.33;;
50585;SDS011;36542;51.700;8.846;2023-04-09T09:40:55;17.05;;;13.43;;
50585;SDS011;36542;51.700;8.846;2023-04-09T09:43:20;21.63;;;15.95;;
50585;SDS011;36542;51.700;8.846;2023-04-09T09:45:46;22.20;;;16.63;;
50585;SDS011;36542;51.700;8.846;2023-04-09T09:48:12;14.75;;;11.35;;
50585;SDS011;36542;51.700;8.846;2023-04-09T09:50:39;12.35;;;11.05;;
50585;SDS011;36542;51.700;8.846;2023-04-09T09:53:06;13.65;;;11.25;;
50585;SDS011;36542;51.700;8.846;2023-04-09T09:55:37;12.43;;;10.60;;
50585;SDS011;36542;51.700;8.846;2023-04-09T09:58:07;10.77;;;9.13;;
50585;SDS011;36542;51.700;8.846;2023-04-09T10:00:39;11.13;;;9.35;;
50585;SDS011;36542;51.700;8.846;2023-04-09T10:03:06;11.77;;;9.68;;
50585;SDS011;36542;51.700;8.846;2023-04-09T10:05:40;9.85;;;7.57;;
50585;SDS011;36542;51.700;8.846;2023-04-09T10:08:06;10.65;;;8.80;;
50585;SDS011;36542;51.700;8.846;2023-04-09T10:10:32;16.80;;;12.63;;
50585;SDS011;36542;51.700;8.846;2023-04-09T10:12:58;12.37;;;10.00;;
50585;SDS011;36542;51.700;8.846;2023-04-09T10:15:24;14.40;;;10.93;;
50585;SDS011;36542;51.700;8.846;2023-04-09T10:17:52;13.73;;;9.93;;
50585;SDS011;36542;51.700;8.846;2023-04-09T10:20:22;12.80;;;10.20;;
50585;SDS011;36542;51.700;8.846;2023-04-09T10:22:56;10.30;;;8.30;;
50585;SDS011;36542;51.700;8.846;2023-04-09T10:25:26;9.97;;;8.63;;
50585;SDS011;36542;51.700;8.846;2023-04-09T10:27:59;12.43;;;10.50;;
50585;SDS011;36542;51.700;8.846;2023-04-09T10:30:31;12.30;;;10.20;;
50585;SDS011;36542;51.700;8.846;2023-04-09T10:33:08;14.73;;;11.70;;
50585;SDS011;36542;51.700;8.846;2023-04-09T10:35:38;12.97;;;10.70;;
50585;SDS011;36542;51.700;8.846;2023-04-09T10:38:06;15.43;;;10.67;;
50585;SDS011;36542;51.700;8.846;2023-04-09T10:40:32;15.03;;;10.90;;
50585;SDS011;36542;51.700;8.846;2023-04-09T10:42:58;12.73;;;10.03;;
50585;SDS011;36542;51.700;8.846;2023-04-09T10:45:25;14.40;;;11.03;;
50585;SDS011;36542;51.700;8.846;2023-04-09T10:48:03;16.50;;;10.67;;
50585;SDS011;36542;51.700;8.846;2023-04-09T10:50:31;15.50;;;11.40;;
50585;SDS011;36542;51.700;8.846;2023-04-09T10:52:57;14.80;;;11.03;;
50585;SDS011;36542;51.700;8.846;2023-04-09T10:55:37;14.37;;;10.23;;
50585;SDS011;36542;51.700;8.846;2023-04-09T10:58:04;14.77;;;10.37;;
50585;SDS011;36542;51.700;8.846;2023-04-09T11:00:31;12.83;;;9.50;;
50585;SDS011;36542;51.700;8.846;2023-04-09T11:05:35;13.73;;;10.70;;
50585;SDS011;36542;51.700;8.846;2023-04-09T11:08:07;13.03;;;10.63;;
50585;SDS011;36542;51.700;8.846;2023-04-09T11:10:34;35.97;;;24.80;;
50585;SDS011;36542;51.700;8.846;2023-04-09T11:13:01;14.17;;;11.20;;
50585;SDS011;36542;51.700;8.846;2023-04-09T11:15:27;15.17;;;12.03;;
50585;SDS011;36542;51.700;8.846;2023-04-09T11:17:53;14.43;;;10.67;;
50585;SDS011;36542;51.700;8.846;2023-04-09T11:20:19;13.10;;;11.17;;
50585;SDS011;36542;51.700;8.846;2023-04-09T11:22:46;13.73;;;11.07;;
50585;SDS011;36542;51.700;8.846;2023-04-09T11:25:26;14.83;;;11.30;;
50585;SDS011;36542;51.700;8.846;2023-04-09T11:27:53;13.90;;;10.80;;
50585;SDS011;36542;51.700;8.846;2023-04-09T11:30:19;15.13;;;12.00;;
50585;SDS011;36542;51.700;8.846;2023-04-09T11:32:45;12.00;;;10.50;;
50585;SDS011;36542;51.700;8.846;2023-04-09T11:35:16;16.40;;;13.13;;
50585;SDS011;36542;51.700;8.846;2023-04-09T11:37:43;15.80;;;12.50;;
50585;SDS011;36542;51.700;8.846;2023-04-09T11:42:48;19.07;;;15.10;;
50585;SDS011;36542;51.700;8.846;2023-04-09T11:45:15;14.67;;;11.30;;
50585;SDS011;36542;51.700;8.846;2023-04-09T11:47:42;16.00;;;12.70;;
50585;SDS011;36542;51.700;8.846;2023-04-09T11:50:09;16.60;;;12.27;;
50585;SDS011;36542;51.700;8.846;2023-04-09T11:52:36;16.53;;;11.40;;
50585;SDS011;36542;51.700;8.846;2023-04-09T11:55:02;20.50;;;14.87;;
50585;SDS011;36542;51.700;8.846;2023-04-09T11:57:39;15.90;;;12.20;;
50585;SDS011;36542;51.700;8.846;2023-04-09T12:00:07;13.30;;;11.23;;
50585;SDS011;36542;51.700;8.846;2023-04-09T12:02:36;14.60;;;11.47;;
50585;SDS011;36542;51.700;8.846;2023-04-09T12:05:08;18.23;;;13.03;;
50585;SDS011;36542;51.700;8.846;2023-04-09T12:07:34;15.83;;;12.40;;
50585;SDS011;36542;51.700;8.846;2023-04-09T12:10:05;16.23;;;12.70;;
50585;SDS011;36542;51.700;8.846;2023-04-09T12:12:40;15.33;;;11.87;;
50585;SDS011;36542;51.700;8.846;2023-04-09T12:15:30;14.63;;;11.30;;
50585;SDS011;36542;51.700;8.846;2023-04-09T12:17:56;15.87;;;12.13;;
50585;SDS011;36542;51.700;8.846;2023-04-09T12:20:40;17.67;;;12.00;;
50585;SDS011;36542;51.700;8.846;2023-04-09T12:23:11;18.07;;;14.00;;
50585;SDS011;36542;51.700;8.846;2023-04-09T12:25:38;16.43;;;12.13;;
50585;SDS011;36542;51.700;8.846;2023-04-09T12:28:05;18.60;;;13.90;;
50585;SDS011;36542;51.700;8.846;2023-04-09T12:30:32;15.30;;;11.83;;
50585;SDS011;36542;51.700;8.846;2023-04-09T12:32:58;17.43;;;12.80;;
50585;SDS011;36542;51.700;8.846;2023-04-09T12:35:24;16.97;;;12.83;;
50585;SDS011;36542;51.700;8.846;2023-04-09T12:37:49;16.90;;;12.93;;
50585;SDS011;36542;51.700;8.846;2023-04-09T12:40:15;15.70;;;12.37;;
50585;SDS011;36542;51.700;8.846;2023-04-09T12:42:42;16.67;;;12.57;;
50585;SDS011;36542;51.700;8.846;2023-04-09T12:45:09;16.57;;;12.50;;
50585;SDS011;36542;51.700;8.846;2023-04-09T12:47:36;17.80;;;13.80;;
50585;SDS011;36542;51.700;8.846;2023-04-09T12:50:03;18.27;;;13.20;;
50585;SDS011;36542;51.700;8.846;2023-04-09T12:52:29;16.57;;;12.87;;
50585;SDS011;36542;51.700;8.846;2023-04-09T12:54:55;16.10;;;12.83;;
50585;SDS011;36542;51.700;8.846;2023-04-09T12:57:20;17.77;;;12.90;;
50585;SDS011;36542;51.700;8.846;2023-04-09T12:59:46;19.57;;;13.90;;
50585;SDS011;36542;51.700;8.846;2023-04-09T13:02:11;18.93;;;13.67;;
50585;SDS011;36542;51.700;8.846;2023-04-09T13:04:37;19.63;;;13.40;;
50585;SDS011;36542;51.700;8.846;2023-04-09T13:07:02;19.30;;;13.17;;
50585;SDS011;36542;51.700;8.846;2023-04-09T13:09:28;18.80;;;13.57;;
50585;SDS011;36542;51.700;8.846;2023-04-09T13:11:53;17.47;;;13.30;;
50585;SDS011;36542;51.700;8.846;2023-04-09T13:14:19;20.17;;;13.63;;
50585;SDS011;36542;51.700;8.846;2023-04-09T13:16:44;18.37;;;14.27;;
50585;SDS011;36542;51.700;8.846;2023-04-09T13:19:10;19.17;;;13.97;;
50585;SDS011;36542;51.700;8.846;2023-04-09T13:21:35;15.87;;;12.67;;
50585;SDS011;36542;51.700;8.846;2023-04-09T13:24:02;17.03;;;12.37;;
50585;SDS011;36542;51.700;8.846;2023-04-09T13:26:29;19.03;;;14.50;;
50585;SDS011;36542;51.700;8.846;2023-04-09T13:28:55;19.03;;;13.47;;
50585;SDS011;36542;51.700;8.846;2023-04-09T13:31:20;26.00;;;14.47;;
50585;SDS011;36542;51.700;8.846;2023-04-09T13:33:46;17.90;;;13.57;;
50585;SDS011;36542;51.700;8.846;2023-04-09T13:36:11;19.53;;;13.37;;
50585;SDS011;36542;51.700;8.846;2023-04-09T13:38:37;17.17;;;12.90;;
50585;SDS011;36542;51.700;8.846;2023-04-09T13:41:03;19.53;;;13.30;;
50585;SDS011;36542;51.700;8.846;2023-04-09T13:43:29;17.67;;;12.30;;
50585;SDS011;36542;51.700;8.846;2023-04-09T13:45:55;17.27;;;12.37;;
50585;SDS011;36542;51.700;8.846;2023-04-09T13:48:21;15.93;;;11.73;;
50585;SDS011;36542;51.700;8.846;2023-04-09T13:50:48;13.90;;;11.00;;
50585;SDS011;36542;51.700;8.846;2023-04-09T13:53:14;16.53;;;12.13;;
50585;SDS011;36542;51.700;8.846;2023-04-09T13:55:41;16.90;;;12.23;;
50585;SDS011;36542;51.700;8.846;2023-04-09T13:58:07;17.80;;;12.40;;
50585;SDS011;36542;51.700;8.846;2023-04-09T14:00:33;17.80;;;13.13;;
50585;SDS011;36542;51.700;8.846;2023-04-09T14:03:00;16.93;;;13.40;;
50585;SDS011;36542;51.700;8.846;2023-04-09T14:05:27;18.83;;;13.23;;
50585;SDS011;36542;51.700;8.846;2023-04-09T14:07:52;18.73;;;13.50;;
50585;SDS011;36542;51.700;8.846;2023-04-09T14:10:18;18.07;;;13.30;;
50585;SDS011;36542;51.700;8.846;2023-04-09T14:12:43;19.40;;;12.67;;
50585;SDS011;36542;51.700;8.846;2023-04-09T14:15:09;17.67;;;12.47;;
50585;SDS011;36542;51.700;8.846;2023-04-09T14:17:35;18.13;;;12.60;;
50585;SDS011;36542;51.700;8.846;2023-04-09T14:20:00;18.60;;;12.90;;
50585;SDS011;36542;51.700;8.846;2023-04-09T14:22:27;17.60;;;13.30;;
50585;SDS011;36542;51.700;8.846;2023-04-09T14:24:53;21.57;;;16.30;;
50585;SDS011;36542;51.700;8.846;2023-04-09T14:27:19;19.33;;;14.03;;
50585;SDS011;36542;51.700;8.846;2023-04-09T14:29:45;19.70;;;16.33;;
50585;SDS011;36542;51.700;8.846;2023-04-09T14:32:10;17.17;;;13.13;;
50585;SDS011;36542;51.700;8.846;2023-04-09T14:34:36;17.80;;;13.47;;